Time;durP1;ratioP1;P1;durP2;ratioP2;P2;SDS_P1;SDS_P2;PMS_P1;PMS_P2;Temp;Humidity;BMP_temperature;BMP_pressure;BME280_temperature;BME280_humidity;BME280_pressure;Samples;Min_cycle;Max_cycle;Signal;HPM_P1;HPM_P2
2022/11/24 00:01:42;;;;;;;;;;;24.70;99.90;;;;;;5092917;28;19920;-50
2022/11/24 00:04:10;;;;;;;;;;;24.70;99.90;;;;;;5092670;28;20379;-50
2022/11/24 00:06:36;;;;;;;;;;;24.70;99.90;;;;;;5093252;28;20740;-50
2022/11/24 00:09:02;;;;;;;;;;;24.70;99.90;;;;;;5092743;28;19947;-51
2022/11/24 00:11:29;;;;;;;;;;;24.70;99.90;;;;;;5093065;28;19912;-51
2022/11/24 00:13:55;;;;;;;;;;;24.70;99.90;;;;;;5092939;28;20100;-50
2022/11/24 00:16:23;;;;;;;;;;;24.60;99.90;;;;;;5092992;28;19950;-50
2022/11/24 00:18:49;;;;;;;;;;;24.60;99.90;;;;;;5093681;28;20364;-50
2022/11/24 00:21:16;;;;;;;;;;;24.60;99.90;;;;;;5093564;28;19912;-50
2022/11/24 00:23:41;;;;;;;;;;;24.60;99.90;;;;;;5074077;28;20003;-50
2022/11/24 00:26:09;;;;;;;;;;;24.60;99.90;;;;;;5092963;28;19959;-50
2022/11/24 00:28:35;;;;;;;;;;;24.60;99.90;;;;;;5093046;28;19918;-50
2022/11/24 00:31:01;;;;;;;;;;;24.60;99.90;;;;;;5092985;28;19912;-49
2022/11/24 00:33:26;;;;;;;;;;;24.60;99.90;;;;;;5067231;28;19913;-49
2022/11/24 00:35:56;;;;;;;;;;;24.60;99.90;;;;;;5087588;28;20350;-49
2022/11/24 00:38:21;;;;;;;;;;;24.50;99.90;;;;;;5075041;28;20295;-49
2022/11/24 00:40:47;;;;;;;;;;;24.50;99.90;;;;;;5093373;28;20014;-49
2022/11/24 00:43:13;;;;;;;;;;;24.50;99.90;;;;;;5093451;28;19999;-49
2022/11/24 00:45:38;;;;;;;;;;;24.50;99.90;;;;;;5093042;28;19999;-49
2022/11/24 00:48:04;;;;;;;;;;;24.50;99.90;;;;;;5093528;28;19908;-49
2022/11/24 00:50:29;;;;;;;;;;;24.50;99.90;;;;;;5093347;28;19915;-50
2022/11/24 00:52:55;;;;;;;;;;;24.50;99.90;;;;;;5074925;28;19908;-50
2022/11/24 00:55:21;;;;;;;;;;;24.50;99.90;;;;;;5092804;28;20387;-50
2022/11/24 00:57:46;;;;;;;;;;;24.50;99.90;;;;;;5092503;28;19977;-49
2022/11/24 01:00:12;;;;;;;;;;;24.50;99.90;;;;;;5093667;28;19927;-49
2022/11/24 01:02:38;;;;;;;;;;;24.50;99.90;;;;;;5092649;28;19914;-48
2022/11/24 01:05:04;;;;;;;;;;;24.50;99.90;;;;;;5092761;28;19912;-49
2022/11/24 01:07:30;;;;;;;;;;;24.40;99.90;;;;;;5093408;28;19908;-49
2022/11/24 01:09:55;;;;;;;;;;;24.40;99.90;;;;;;5092792;28;19908;-48
2022/11/24 01:12:21;;;;;;;;;;;24.40;99.90;;;;;;5093155;28;20004;-49
2022/11/24 01:14:46;;;;;;;;;;;24.40;99.90;;;;;;5092782;28;20333;-49
2022/11/24 01:17:12;;;;;;;;;;;24.40;99.90;;;;;;5094626;28;19940;-49
2022/11/24 01:19:37;;;;;;;;;;;24.40;99.90;;;;;;5096969;28;20356;-49
2022/11/24 01:22:03;;;;;;;;;;;24.40;99.90;;;;;;5096781;28;20449;-49
2022/11/24 01:24:29;;;;;;;;;;;24.40;99.90;;;;;;5096688;28;19908;-50
2022/11/24 01:26:54;;;;;;;;;;;24.40;99.90;;;;;;5078775;28;20341;-49
2022/11/24 01:29:20;;;;;;;;;;;24.30;99.90;;;;;;5080723;28;19916;-49
2022/11/24 01:31:46;;;;;;;;;;;24.30;99.90;;;;;;5090634;28;20276;-49
2022/11/24 01:34:12;;;;;;;;;;;24.30;99.90;;;;;;5093182;28;20439;-49
2022/11/24 01:36:38;;;;;;;;;;;24.30;99.90;;;;;;5091554;28;20329;-49
2022/11/24 01:39:03;;;;;;;;;;;24.30;99.90;;;;;;5084184;28;19924;-50
2022/11/24 01:41:29;;;;;;;;;;;24.30;99.90;;;;;;5096307;28;19908;-50
2022/11/24 01:43:55;;;;;;;;;;;24.30;99.90;;;;;;5078626;28;20014;-50
2022/11/24 01:46:30;;;;;;;;;;;24.30;99.90;;;;;;5095683;28;19912;-50
2022/11/24 01:48:55;;;;;;;;;;;24.30;99.90;;;;;;5095949;28;19995;-50
2022/11/24 01:51:25;;;;;;;;;;;24.30;99.90;;;;;;5078264;28;19908;-50
2022/11/24 01:53:53;;;;;;;;;;;24.30;99.90;;;;;;5095880;28;19919;-50
2022/11/24 01:56:19;;;;;;;;;;;24.30;99.90;;;;;;5096356;28;19931;-50
2022/11/24 01:58:45;;;;;;;;;;;24.30;99.90;;;;;;5081944;28;20352;-49
2022/11/24 02:01:11;;;;;;;;;;;24.30;99.90;;;;;;5096225;28;19920;-51
2022/11/24 02:03:38;;;;;;;;;;;24.30;99.90;;;;;;5096100;28;20405;-51
2022/11/24 02:06:09;;;;;;;;;;;24.30;99.90;;;;;;5096230;28;19953;-50
2022/11/24 02:08:40;;;;;;;;;;;24.30;99.90;;;;;;5095549;28;19936;-50
2022/11/24 02:11:06;;;;;;;;;;;24.30;99.90;;;;;;5095932;28;19919;-51
2022/11/24 02:13:37;;;;;;;;;;;24.20;99.90;;;;;;5095861;28;19908;-50
2022/11/24 02:16:04;;;;;;;;;;;24.30;99.90;;;;;;5095221;28;19919;-49
2022/11/24 02:18:29;;;;;;;;;;;24.30;99.90;;;;;;5095753;28;19923;-49
2022/11/24 02:20:55;;;;;;;;;;;24.20;99.90;;;;;;5078113;28;20272;-50
2022/11/24 02:23:30;;;;;;;;;;;24.20;99.90;;;;;;5095258;28;19912;-49
2022/11/24 02:25:59;;;;;;;;;;;24.20;99.90;;;;;;5095674;28;19908;-49
2022/11/24 02:28:25;;;;;;;;;;;24.20;99.90;;;;;;5095147;28;20006;-50
2022/11/24 02:30:51;;;;;;;;;;;24.20;99.90;;;;;;5095099;28;19912;-50
2022/11/24 02:33:18;;;;;;;;;;;24.20;99.90;;;;;;5077033;28;19915;-48
2022/11/24 02:35:43;;;;;;;;;;;24.20;99.90;;;;;;5093382;28;19915;-49
2022/11/24 02:38:11;;;;;;;;;;;24.20;99.90;;;;;;5093364;28;19916;-50
2022/11/24 02:40:36;;;;;;;;;;;24.20;99.90;;;;;;5093387;28;19912;-49
2022/11/24 02:43:04;;;;;;;;;;;24.20;99.90;;;;;;5093202;28;19908;-49
2022/11/24 02:45:30;;;;;;;;;;;24.20;99.90;;;;;;5093149;28;19938;-49
2022/11/24 02:47:56;;;;;;;;;;;24.20;99.90;;;;;;5093183;28;19912;-50
2022/11/24 02:50:22;;;;;;;;;;;24.20;99.90;;;;;;5094701;28;19908;-50
2022/11/24 02:52:47;;;;;;;;;;;24.10;99.90;;;;;;5095234;28;19908;-49
2022/11/24 02:55:13;;;;;;;;;;;24.10;99.90;;;;;;5069651;28;20315;-49
2022/11/24 02:57:38;;;;;;;;;;;24.10;99.90;;;;;;5087884;28;20015;-49
2022/11/24 03:00:04;;;;;;;;;;;24.10;99.90;;;;;;5095565;28;19926;-49
2022/11/24 03:02:30;;;;;;;;;;;24.10;99.90;;;;;;5094576;28;19912;-48
2022/11/24 03:04:55;;;;;;;;;;;24.10;99.90;;;;;;5094801;28;19965;-48
2022/11/24 03:07:21;;;;;;;;;;;24.10;99.90;;;;;;5094703;28;20356;-48
2022/11/24 03:09:47;;;;;;;;;;;24.10;99.90;;;;;;5094520;28;19915;-48
2022/11/24 03:12:13;;;;;;;;;;;24.10;99.90;;;;;;5094942;28;19931;-49
2022/11/24 03:14:38;;;;;;;;;;;24.10;99.90;;;;;;5094747;28;20378;-49
2022/11/24 03:17:04;;;;;;;;;;;24.10;99.90;;;;;;5094368;28;20003;-49
2022/11/24 03:19:30;;;;;;;;;;;24.10;99.90;;;;;;5094583;28;19916;-49
2022/11/24 03:21:55;;;;;;;;;;;24.10;99.90;;;;;;5094663;28;19961;-48
2022/11/24 03:24:21;;;;;;;;;;;24.00;99.90;;;;;;5094263;28;19909;-49
2022/11/24 03:26:46;;;;;;;;;;;24.00;99.90;;;;;;5094456;28;19908;-49
2022/11/24 03:29:12;;;;;;;;;;;24.10;99.90;;;;;;5094471;28;19943;-50
2022/11/24 03:31:37;;;;;;;;;;;24.00;99.90;;;;;;5094280;28;19908;-49
2022/11/24 03:34:03;;;;;;;;;;;24.10;99.90;;;;;;5094334;28;19908;-49
2022/11/24 03:36:29;;;;;;;;;;;24.00;99.90;;;;;;5094365;28;20352;-49
2022/11/24 03:38:54;;;;;;;;;;;24.00;99.90;;;;;;5093061;28;19986;-49
2022/11/24 03:41:20;;;;;;;;;;;24.00;99.90;;;;;;5094275;28;19908;-50
2022/11/24 03:43:45;;;;;;;;;;;24.00;99.90;;;;;;5094333;28;19908;-50
2022/11/24 03:46:11;;;;;;;;;;;24.00;99.90;;;;;;5093757;28;20439;-50
2022/11/24 03:48:37;;;;;;;;;;;24.00;99.90;;;;;;5094236;28;19931;-50
2022/11/24 03:51:02;;;;;;;;;;;24.00;99.90;;;;;;5093991;28;20356;-50
2022/11/24 03:53:29;;;;;;;;;;;24.00;99.90;;;;;;5093674;28;19912;-50
2022/11/24 03:55:55;;;;;;;;;;;24.00;99.90;;;;;;5094028;28;20395;-50
2022/11/24 03:58:20;;;;;;;;;;;24.00;99.90;;;;;;5093945;28;20018;-50
2022/11/24 04:00:50;;;;;;;;;;;24.00;99.90;;;;;;5117167;22;19924;-44
2022/11/24 04:03:15;;;;;;;;;;;23.90;99.90;;;;;;5081671;28;19909;-44
2022/11/24 04:05:41;;;;;;;;;;;23.90;99.90;;;;;;5107086;28;19915;-43
2022/11/24 04:08:07;;;;;;;;;;;23.90;99.90;;;;;;5107008;28;19915;-44
2022/11/24 04:10:35;;;;;;;;;;;23.90;99.90;;;;;;5099817;28;19972;-44
2022/11/24 04:13:01;;;;;;;;;;;23.90;99.90;;;;;;5084255;28;19919;-43
2022/11/24 04:15:26;;;;;;;;;;;23.90;99.90;;;;;;5107547;28;19908;-45
2022/11/24 04:17:53;;;;;;;;;;;23.90;99.90;;;;;;5075734;28;20360;-44
2022/11/24 04:20:19;;;;;;;;;;;23.90;99.90;;;;;;5108018;28;19920;-45
2022/11/24 04:22:44;;;;;;;;;;;23.90;99.90;;;;;;5101244;28;19908;-43
2022/11/24 04:25:10;;;;;;;;;;;23.90;99.90;;;;;;5099846;28;19908;-44
2022/11/24 04:27:36;;;;;;;;;;;23.90;99.90;;;;;;5108003;28;19919;-45
2022/11/24 04:30:03;;;;;;;;;;;23.90;99.90;;;;;;5105493;28;19960;-44
2022/11/24 04:32:29;;;;;;;;;;;23.90;99.90;;;;;;5095320;28;19963;-44
2022/11/24 04:34:54;;;;;;;;;;;23.90;99.90;;;;;;5086036;28;19931;-45
2022/11/24 04:37:20;;;;;;;;;;;23.90;99.90;;;;;;5099296;28;20372;-44
2022/11/24 04:39:46;;;;;;;;;;;23.90;99.90;;;;;;5105137;28;19973;-44
2022/11/24 04:42:11;;;;;;;;;;;23.80;99.90;;;;;;5107680;28;19908;-46
2022/11/24 04:44:37;;;;;;;;;;;23.90;99.90;;;;;;5075337;28;20379;-45
2022/11/24 04:47:03;;;;;;;;;;;23.80;99.90;;;;;;5105526;28;19930;-45
2022/11/24 04:49:29;;;;;;;;;;;23.80;99.90;;;;;;5093010;28;19913;-43
2022/11/24 04:51:55;;;;;;;;;;;23.80;99.90;;;;;;5111590;28;20244;-44
2022/11/24 04:54:20;;;;;;;;;;;23.80;99.90;;;;;;5104221;28;20368;-44
2022/11/24 04:56:49;;;;;;;;;;;23.80;99.90;;;;;;5104597;28;19915;-43
2022/11/24 05:01:47;;;;;;;;;;;23.80;99.90;;;;;;5055211;28;19925;-46
2022/11/24 05:04:13;;;;;;;;;;;23.80;99.90;;;;;;5056796;28;19912;-46
2022/11/24 05:06:38;;;;;;;;;;;23.80;99.90;;;;;;5056620;28;20325;-47
2022/11/24 05:09:05;;;;;;;;;;;23.70;99.90;;;;;;5038806;28;19915;-49
2022/11/24 05:11:30;;;;;;;;;;;23.70;99.90;;;;;;5056646;28;19909;-47
2022/11/24 05:13:56;;;;;;;;;;;23.70;99.90;;;;;;5056447;28;19909;-47
2022/11/24 05:16:22;;;;;;;;;;;23.70;99.90;;;;;;5056207;28;19909;-46
2022/11/24 05:18:47;;;;;;;;;;;23.70;99.90;;;;;;5055144;28;19917;-46
2022/11/24 05:21:13;;;;;;;;;;;23.70;99.90;;;;;;5054870;28;19908;-47
2022/11/24 05:23:38;;;;;;;;;;;23.60;99.90;;;;;;5056319;28;19913;-47
2022/11/24 05:26:04;;;;;;;;;;;23.60;99.90;;;;;;5056024;28;20007;-47
2022/11/24 05:28:30;;;;;;;;;;;23.70;99.90;;;;;;5051106;28;19916;-46
2022/11/24 05:30:59;;;;;;;;;;;23.60;99.90;;;;;;5049313;28;19982;-46
2022/11/24 05:33:27;;;;;;;;;;;23.60;99.90;;;;;;5056398;28;19913;-46
2022/11/24 05:35:53;;;;;;;;;;;23.60;99.90;;;;;;5056264;28;20341;-46
2022/11/24 05:38:19;;;;;;;;;;;23.60;99.90;;;;;;5056176;28;19923;-46
2022/11/24 05:40:45;;;;;;;;;;;23.60;99.90;;;;;;5056257;28;20375;-46
2022/11/24 05:43:15;;;;;;;;;;;23.60;99.90;;;;;;5055415;28;19916;-46
2022/11/24 05:45:41;;;;;;;;;;;23.60;99.90;;;;;;5056243;28;19908;-46
2022/11/24 05:48:08;;;;;;;;;;;23.60;99.90;;;;;;5056077;28;19909;-46
2022/11/24 05:50:34;;;;;;;;;;;23.60;99.90;;;;;;5038046;28;19908;-46
2022/11/24 05:53:02;;;;;;;;;;;23.50;99.90;;;;;;5056125;28;19970;-46
2022/11/24 05:55:28;;;;;;;;;;;23.50;99.90;;;;;;5055910;28;19975;-47
2022/11/24 05:58:01;;;;;;;;;;;23.50;99.90;;;;;;5055871;28;20368;-46
2022/11/24 06:00:27;;;;;;;;;;;23.50;99.90;;;;;;5055873;28;19921;-46
2022/11/24 06:02:53;;;;;;;;;;;23.50;99.90;;;;;;5053802;28;19908;-47
2022/11/24 06:05:18;;;;;;;;;;;23.50;99.90;;;;;;5036653;28;20321;-48
2022/11/24 06:07:44;;;;;;;;;;;23.50;99.90;;;;;;5055469;28;19916;-47
2022/11/24 06:10:09;;;;;;;;;;;23.50;99.90;;;;;;5056047;28;19916;-46
2022/11/24 06:12:35;;;;;;;;;;;23.50;99.90;;;;;;5055939;28;19909;-47
2022/11/24 06:15:01;;;;;;;;;;;23.50;99.90;;;;;;5055902;28;19913;-47
2022/11/24 06:17:26;;;;;;;;;;;23.50;99.90;;;;;;5056137;28;19924;-46
2022/11/24 06:19:52;;;;;;;;;;;23.50;99.90;;;;;;5055906;28;19909;-47
2022/11/24 06:22:18;;;;;;;;;;;23.50;99.90;;;;;;5055747;28;19915;-47
2022/11/24 06:24:45;;;;;;;;;;;23.50;99.90;;;;;;5021544;28;19916;-48
2022/11/24 06:27:11;;;;;;;;;;;23.50;99.90;;;;;;5055400;28;19913;-48
2022/11/24 06:29:37;;;;;;;;;;;23.50;99.90;;;;;;5055915;28;19963;-47
2022/11/24 06:32:02;;;;;;;;;;;23.40;99.90;;;;;;5055517;28;19909;-47
2022/11/24 06:34:28;;;;;;;;;;;23.40;99.90;;;;;;5055498;28;19995;-47
2022/11/24 06:36:54;;;;;;;;;;;23.50;99.90;;;;;;5055521;28;20360;-47
2022/11/24 06:39:19;;;;;;;;;;;23.40;99.90;;;;;;5055349;28;19917;-46
2022/11/24 06:41:45;;;;;;;;;;;23.50;99.90;;;;;;5055517;28;20350;-46
2022/11/24 06:44:11;;;;;;;;;;;23.50;99.90;;;;;;5055088;28;19913;-46
2022/11/24 06:46:36;;;;;;;;;;;23.40;99.90;;;;;;5055371;28;19909;-47
2022/11/24 06:49:02;;;;;;;;;;;23.40;99.90;;;;;;5055046;28;19909;-47
2022/11/24 06:51:27;;;;;;;;;;;23.40;99.90;;;;;;5055140;28;19915;-47
2022/11/24 06:53:53;;;;;;;;;;;23.40;99.90;;;;;;5055037;28;19916;-46
2022/11/24 06:56:19;;;;;;;;;;;23.40;99.90;;;;;;5054966;28;19948;-46
2022/11/24 06:58:46;;;;;;;;;;;23.40;99.90;;;;;;5054850;28;19917;-47
2022/11/24 07:01:16;;;;;;;;;;;23.40;99.90;;;;;;5055074;28;19921;-47
2022/11/24 07:03:41;;;;;;;;;;;23.40;99.90;;;;;;5055061;28;19912;-46
2022/11/24 07:06:07;;;;;;;;;;;23.40;99.90;;;;;;5055057;28;20284;-47
2022/11/24 07:08:32;;;;;;;;;;;23.40;99.90;;;;;;5054775;28;19913;-47
2022/11/24 07:11:02;;;;;;;;;;;23.40;99.90;;;;;;5054941;28;19916;-47
2022/11/24 07:13:28;;;;;;;;;;;23.30;99.90;;;;;;5054598;28;19916;-47
2022/11/24 07:15:53;;;;;;;;;;;23.30;99.90;;;;;;5054768;28;20015;-47
2022/11/24 07:18:19;;;;;;;;;;;23.40;99.90;;;;;;5054823;28;19917;-48
2022/11/24 07:20:45;;;;;;;;;;;23.30;99.90;;;;;;5054524;28;19908;-47
2022/11/24 07:23:10;;;;;;;;;;;23.30;99.90;;;;;;5036485;28;19909;-46
2022/11/24 07:25:36;;;;;;;;;;;23.30;99.90;;;;;;5054540;28;20297;-47
2022/11/24 07:28:01;;;;;;;;;;;23.30;99.90;;;;;;5054186;28;19909;-47
2022/11/24 07:30:27;;;;;;;;;;;23.40;99.90;;;;;;5054208;28;20444;-47
2022/11/24 07:32:59;;;;;;;;;;;23.40;99.90;;;;;;5054477;28;20007;-47
2022/11/24 07:35:25;;;;;;;;;;;23.40;99.90;;;;;;5054381;28;19990;-47
2022/11/24 07:37:55;;;;;;;;;;;23.40;99.90;;;;;;5054148;28;20393;-46
2022/11/24 07:40:20;;;;;;;;;;;23.40;99.90;;;;;;5036484;28;19909;-47
2022/11/24 07:42:46;;;;;;;;;;;23.40;99.90;;;;;;5054063;28;19913;-47
2022/11/24 07:45:12;;;;;;;;;;;23.40;99.90;;;;;;5054212;28;19909;-47
2022/11/24 07:47:38;;;;;;;;;;;23.40;99.90;;;;;;5054031;28;19909;-47
2022/11/24 07:50:03;;;;;;;;;;;23.50;99.90;;;;;;5053878;28;19909;-46
2022/11/24 07:52:29;;;;;;;;;;;23.40;99.90;;;;;;5054088;28;19916;-47
2022/11/24 07:54:55;;;;;;;;;;;23.50;99.90;;;;;;5036103;28;19913;-47
2022/11/24 07:57:20;;;;;;;;;;;23.50;99.90;;;;;;5053716;28;20479;-47
2022/11/24 07:59:46;;;;;;;;;;;23.50;99.90;;;;;;5053540;28;19928;-47
2022/11/24 08:02:12;;;;;;;;;;;23.50;99.90;;;;;;5053821;28;19908;-47
2022/11/24 08:04:37;;;;;;;;;;;23.50;99.90;;;;;;5053916;28;19909;-46
2022/11/24 08:07:03;;;;;;;;;;;23.60;99.90;;;;;;5053794;28;19916;-47
2022/11/24 08:09:28;;;;;;;;;;;23.50;99.90;;;;;;5035693;28;19909;-46
2022/11/24 08:11:54;;;;;;;;;;;23.60;99.90;;;;;;5035814;28;19909;-47
2022/11/24 08:14:19;;;;;;;;;;;23.60;99.90;;;;;;5053581;28;19951;-47
2022/11/24 08:16:45;;;;;;;;;;;23.60;99.90;;;;;;5053660;28;19931;-46
2022/11/24 08:19:11;;;;;;;;;;;23.70;99.90;;;;;;5035529;28;19917;-47
2022/11/24 08:21:37;;;;;;;;;;;23.70;99.90;;;;;;5035650;28;19974;-48
2022/11/24 08:24:03;;;;;;;;;;;23.70;99.90;;;;;;5053517;28;19908;-47
2022/11/24 08:26:28;;;;;;;;;;;23.80;99.90;;;;;;5052917;28;20000;-48
2022/11/24 08:28:55;;;;;;;;;;;23.80;99.90;;;;;;5053277;28;19916;-47
2022/11/24 08:31:21;;;;;;;;;;;23.80;99.90;;;;;;5053441;28;19940;-47
2022/11/24 08:33:46;;;;;;;;;;;23.80;99.90;;;;;;5053535;28;19908;-48
2022/11/24 08:36:16;;;;;;;;;;;23.90;99.90;;;;;;5053565;28;19909;-47
2022/11/24 08:38:43;;;;;;;;;;;23.90;99.90;;;;;;5053381;28;19917;-48
2022/11/24 08:41:13;;;;;;;;;;;23.90;99.90;;;;;;5053295;28;20308;-48
2022/11/24 08:43:38;;;;;;;;;;;23.90;99.90;;;;;;5053266;28;19915;-47
2022/11/24 08:46:06;;;;;;;;;;;23.90;99.90;;;;;;5053451;28;19909;-47
2022/11/24 08:48:32;;;;;;;;;;;24.00;99.90;;;;;;5053338;28;19909;-47
2022/11/24 08:50:57;;;;;;;;;;;24.00;99.90;;;;;;5053350;28;20020;-47
2022/11/24 08:53:24;;;;;;;;;;;24.00;99.90;;;;;;5053124;28;19913;-47
2022/11/24 08:55:49;;;;;;;;;;;24.00;99.90;;;;;;5053320;28;20365;-47
2022/11/24 08:58:15;;;;;;;;;;;24.10;99.90;;;;;;5053256;28;19970;-47
2022/11/24 09:00:41;;;;;;;;;;;24.10;99.90;;;;;;5053159;28;19936;-48
2022/11/24 09:03:09;;;;;;;;;;;24.10;99.90;;;;;;5053102;28;19915;-48
2022/11/24 09:05:35;;;;;;;;;;;24.10;99.90;;;;;;5053343;28;19909;-48
2022/11/24 09:08:01;;;;;;;;;;;24.10;99.90;;;;;;5053039;28;19912;-48
2022/11/24 09:10:26;;;;;;;;;;;24.10;99.90;;;;;;5053266;28;19963;-48
2022/11/24 09:12:52;;;;;;;;;;;24.20;99.90;;;;;;5053329;28;19915;-48
2022/11/24 09:15:19;;;;;;;;;;;24.20;99.90;;;;;;5053022;28;19916;-47
2022/11/24 09:17:45;;;;;;;;;;;24.20;99.90;;;;;;5052909;28;19924;-47
2022/11/24 09:20:10;;;;;;;;;;;24.30;99.90;;;;;;5052946;28;19912;-48
2022/11/24 09:22:37;;;;;;;;;;;24.30;99.90;;;;;;5035211;28;20399;-48
2022/11/24 09:25:03;;;;;;;;;;;24.40;99.90;;;;;;5053026;28;19959;-48
2022/11/24 09:27:29;;;;;;;;;;;24.40;99.90;;;;;;5035198;28;20322;-48
2022/11/24 09:29:54;;;;;;;;;;;24.40;99.90;;;;;;5053166;28;19944;-47
2022/11/24 09:32:20;;;;;;;;;;;24.50;99.90;;;;;;5052967;28;19913;-48
2022/11/24 09:34:46;;;;;;;;;;;24.50;99.90;;;;;;5052893;28;19909;-47
2022/11/24 09:37:12;;;;;;;;;;;24.50;99.90;;;;;;5053662;28;20000;-48
2022/11/24 09:39:37;;;;;;;;;;;24.60;99.90;;;;;;5056673;28;19921;-48
2022/11/24 09:42:11;;;;;;;;;;;24.60;99.90;;;;;;5038548;28;20273;-48
2022/11/24 09:44:55;;;;;;;;;;;24.70;99.90;;;;;;5056411;28;19995;-48
2022/11/24 09:47:21;;;;;;;;;;;24.70;99.90;;;;;;5056406;28;19912;-48
2022/11/24 09:50:03;;;;;;;;;;;24.80;99.90;;;;;;5056260;28;19909;-48
2022/11/24 09:52:48;;;;;;;;;;;24.80;99.90;;;;;;5056127;28;19916;-48
2022/11/24 09:55:32;;;;;;;;;;;24.90;99.90;;;;;;5056388;28;19909;-48
2022/11/24 09:58:03;;;;;;;;;;;24.90;99.90;;;;;;5056021;28;19997;-47
2022/11/24 10:00:29;;;;;;;;;;;24.90;99.90;;;;;;5056092;28;20292;-48
2022/11/24 10:02:56;;;;;;;;;;;25.00;99.90;;;;;;5056003;28;19909;-48
2022/11/24 10:05:25;;;;;;;;;;;25.00;99.90;;;;;;5038603;28;20326;-48
2022/11/24 10:08:14;;;;;;;;;;;25.00;99.90;;;;;;5056182;28;19913;-48
2022/11/24 10:10:46;;;;;;;;;;;25.10;99.90;;;;;;5055853;28;19908;-49
2022/11/24 10:13:14;;;;;;;;;;;25.10;99.90;;;;;;5055836;28;19916;-48
2022/11/24 10:16:00;;;;;;;;;;;25.20;99.90;;;;;;5056030;28;19909;-48
2022/11/24 10:18:26;;;;;;;;;;;25.30;99.90;;;;;;5014789;28;19956;-48
2022/11/24 10:20:57;;;;;;;;;;;25.30;99.90;;;;;;5055657;28;20396;-48
2022/11/24 10:23:34;;;;;;;;;;;25.30;99.90;;;;;;5055600;28;20249;-48
2022/11/24 10:26:04;;;;;;;;;;;25.40;99.90;;;;;;5055801;28;19909;-47
2022/11/24 10:28:49;;;;;;;;;;;25.40;99.90;;;;;;5055568;28;19916;-49
2022/11/24 10:31:31;;;;;;;;;;;25.40;99.90;;;;;;5054682;28;19917;-48
2022/11/24 10:34:00;;;;;;;;;;;25.50;99.90;;;;;;5055535;28;19931;-48
2022/11/24 10:36:44;;;;;;;;;;;25.50;99.90;;;;;;5055507;28;19962;-48
2022/11/24 10:39:14;;;;;;;;;;;25.60;99.90;;;;;;5055495;28;19917;-48
2022/11/24 10:41:47;;;;;;;;;;;25.60;99.90;;;;;;5037379;28;20008;-48
2022/11/24 10:44:14;;;;;;;;;;;25.70;99.90;;;;;;5055112;28;19909;-49
2022/11/24 10:46:40;;;;;;;;;;;25.70;99.90;;;;;;5055283;28;20361;-48
2022/11/24 10:49:05;;;;;;;;;;;25.80;99.90;;;;;;5055118;28;19955;-49
2022/11/24 10:51:45;;;;;;;;;;;25.80;99.90;;;;;;5055224;28;19913;-49
2022/11/24 10:54:15;;;;;;;;;;;25.80;99.90;;;;;;5037212;28;19948;-48
2022/11/24 10:56:42;;;;;;;;;;;25.80;99.90;;;;;;5055042;28;19962;-48
2022/11/24 10:59:22;;;;;;;;;;;25.90;99.90;;;;;;5055244;28;19960;-48
2022/11/24 11:01:48;;;;;;;;;;;25.90;99.90;;;;;;5054932;28;20282;-48
2022/11/24 11:04:21;;;;;;;;;;;25.90;99.90;;;;;;5055158;28;19917;-48
2022/11/24 11:06:46;;;;;;;;;;;26.00;99.90;;;;;;5036980;28;19912;-49
2022/11/24 11:09:12;;;;;;;;;;;26.00;99.90;;;;;;5054701;28;19913;-48
2022/11/24 11:11:38;;;;;;;;;;;26.00;99.90;;;;;;5054817;28;19941;-49
2022/11/24 11:14:05;;;;;;;;;;;26.10;99.90;;;;;;5054607;28;19909;-49
2022/11/24 11:16:38;;;;;;;;;;;26.10;99.90;;;;;;5054911;28;20289;-48
2022/11/24 11:19:05;;;;;;;;;;;26.20;99.90;;;;;;5037136;28;20293;-48
2022/11/24 11:21:32;;;;;;;;;;;26.20;99.90;;;;;;5054638;28;19915;-48
2022/11/24 11:23:59;;;;;;;;;;;26.20;99.90;;;;;;5054813;28;19909;-48
2022/11/24 11:26:26;;;;;;;;;;;26.20;99.90;;;;;;5054416;28;19972;-48
2022/11/24 11:29:12;;;;;;;;;;;26.30;99.90;;;;;;5054416;28;19982;-48
2022/11/24 11:31:38;;;;;;;;;;;26.30;99.90;;;;;;5036235;28;19963;-49
2022/11/24 11:34:13;;;;;;;;;;;26.30;99.90;;;;;;5054700;28;19956;-48
2022/11/24 11:36:41;;;;;;;;;;;26.30;99.90;;;;;;5054400;28;20435;-49
2022/11/24 11:39:14;;;;;;;;;;;26.30;99.90;;;;;;5036474;28;19917;-48
2022/11/24 11:41:42;;;;;;;;;;;26.40;99.90;;;;;;5053906;28;20007;-49
2022/11/24 11:44:34;;;;;;;;;;;26.40;99.90;;;;;;5054114;28;19913;-49
2022/11/24 11:47:07;;;;;;;;;;;26.40;99.90;;;;;;5036316;28;19909;-48
2022/11/24 11:49:33;;;;;;;;;;;26.50;99.90;;;;;;5053705;28;20003;-49
2022/11/24 11:52:11;;;;;;;;;;;26.50;99.90;;;;;;5053416;28;20363;-48
2022/11/24 11:54:43;;;;;;;;;;;26.50;99.90;;;;;;5053147;28;19971;-48
2022/11/24 11:57:38;;;;;;;;;;;26.50;99.90;;;;;;5053620;28;20007;-48
2022/11/24 12:00:09;;;;;;;;;;;26.40;99.90;;;;;;5004544;28;20008;-49
2022/11/24 12:02:35;;;;;;;;;;;26.30;99.90;;;;;;5033522;28;19975;-48
2022/11/24 12:05:04;;;;;;;;;;;26.20;99.90;;;;;;5033438;28;20463;-47
2022/11/24 12:07:38;;;;;;;;;;;26.10;99.90;;;;;;5031002;28;19919;-48
2022/11/24 12:10:15;;;;;;;;;;;26.00;99.90;;;;;;5033568;28;19909;-48
2022/11/24 12:12:50;;;;;;;;;;;26.00;99.90;;;;;;5033987;28;19916;-48
2022/11/24 12:15:37;;;;;;;;;;;26.00;99.90;;;;;;5033789;28;20328;-48
2022/11/24 12:18:21;;;;;;;;;;;25.90;99.90;;;;;;5033032;28;20008;-49
2022/11/24 12:20:56;;;;;;;;;;;25.80;99.90;;;;;;5030997;28;20221;-49
2022/11/24 12:23:21;;;;;;;;;;;25.80;99.90;;;;;;5031724;28;19916;-49
2022/11/24 12:26:06;;;;;;;;;;;25.80;99.90;;;;;;5031566;28;19909;-49
2022/11/24 12:28:37;;;;;;;;;;;25.80;99.90;;;;;;5031573;28;19913;-49
2022/11/24 12:31:07;;;;;;;;;;;25.90;99.90;;;;;;5031598;28;19959;-49
2022/11/24 12:33:32;;;;;;;;;;;25.90;99.90;;;;;;5032631;28;19909;-49
2022/11/24 12:36:03;;;;;;;;;;;25.90;99.90;;;;;;5032428;28;20386;-49
2022/11/24 12:38:37;;;;;;;;;;;25.90;99.90;;;;;;5033226;28;19917;-49
2022/11/24 12:41:14;;;;;;;;;;;25.90;99.90;;;;;;5032110;28;20353;-49
2022/11/24 12:43:44;;;;;;;;;;;25.90;99.90;;;;;;5033494;28;19918;-49
2022/11/24 12:46:19;;;;;;;;;;;25.90;99.90;;;;;;5033737;28;20328;-49
2022/11/24 12:48:50;;;;;;;;;;;25.80;99.90;;;;;;5033152;28;19955;-49
2022/11/24 12:51:17;;;;;;;;;;;25.80;99.90;;;;;;5033449;28;19979;-49
2022/11/24 12:53:44;;;;;;;;;;;25.60;99.90;;;;;;5033302;28;19971;-49
2022/11/24 12:56:11;;;;;;;;;;;25.50;99.90;;;;;;5033299;28;20004;-49
2022/11/24 12:58:55;;;;;;;;;;;25.50;99.90;;;;;;5033226;28;19924;-49
2022/11/24 13:01:32;;;;;;;;;;;25.50;99.90;;;;;;5049205;28;19931;-49
2022/11/24 13:04:16;;;;;;;;;;;25.50;99.90;;;;;;5052997;28;19917;-49
2022/11/24 13:06:54;;;;;;;;;;;25.50;99.90;;;;;;5053147;28;19963;-49
2022/11/24 13:09:19;;;;;;;;;;;25.50;99.90;;;;;;5053045;28;19909;-49
2022/11/24 13:11:47;;;;;;;;;;;25.50;99.90;;;;;;5054698;28;19991;-49
2022/11/24 13:14:30;;;;;;;;;;;25.40;99.90;;;;;;5056759;28;19913;-48
2022/11/24 13:16:57;;;;;;;;;;;25.40;99.90;;;;;;5056980;28;19909;-49
2022/11/24 13:19:23;;;;;;;;;;;25.50;99.90;;;;;;5057025;28;19970;-49
2022/11/24 13:22:00;;;;;;;;;;;25.50;99.90;;;;;;5056789;28;19913;-49
2022/11/24 13:24:36;;;;;;;;;;;25.40;99.90;;;;;;5057031;28;19920;-49
2022/11/24 13:27:14;;;;;;;;;;;25.40;99.90;;;;;;5056639;28;19935;-49
2022/11/24 13:29:40;;;;;;;;;;;25.40;99.90;;;;;;5038722;28;19913;-50
2022/11/24 13:32:06;;;;;;;;;;;25.40;99.90;;;;;;5056815;28;19913;-50
2022/11/24 13:34:37;;;;;;;;;;;25.40;99.90;;;;;;5056727;28;19908;-49
2022/11/24 13:37:03;;;;;;;;;;;25.40;99.90;;;;;;5056564;28;19909;-49
2022/11/24 13:39:46;;;;;;;;;;;25.40;99.90;;;;;;5056627;28;19917;-49
2022/11/24 13:42:12;;;;;;;;;;;25.40;99.90;;;;;;5056668;28;20019;-49
2022/11/24 13:44:44;;;;;;;;;;;25.50;99.90;;;;;;5056518;28;20007;-47
2022/11/24 13:47:28;;;;;;;;;;;25.50;99.90;;;;;;5056349;28;19909;-47
2022/11/24 13:49:53;;;;;;;;;;;25.50;99.90;;;;;;5056304;28;20365;-47
2022/11/24 13:52:37;;;;;;;;;;;25.60;99.90;;;;;;5056438;28;19909;-48
2022/11/24 13:55:11;;;;;;;;;;;25.70;99.90;;;;;;5056317;28;20460;-47
2022/11/24 13:57:38;;;;;;;;;;;25.80;99.90;;;;;;5055461;28;19909;-49
2022/11/24 14:00:17;;;;;;;;;;;25.90;99.90;;;;;;5055568;28;19921;-49
2022/11/24 14:02:42;;;;;;;;;;;26.00;99.90;;;;;;5056177;28;20323;-49
2022/11/24 14:05:12;;;;;;;;;;;26.10;99.90;;;;;;5056011;28;20003;-49
2022/11/24 14:07:39;;;;;;;;;;;26.10;99.90;;;;;;5056084;28;19909;-49
2022/11/24 14:10:12;;;;;;;;;;;26.20;99.90;;;;;;5037865;28;19920;-49
2022/11/24 14:12:38;;;;;;;;;;;26.30;99.90;;;;;;5041273;28;19999;-50
2022/11/24 14:15:21;;;;;;;;;;;26.40;99.90;;;;;;5036503;28;20022;-49
2022/11/24 14:17:46;;;;;;;;;;;26.40;99.90;;;;;;5038914;28;19913;-50
2022/11/24 14:20:22;;;;;;;;;;;26.50;99.90;;;;;;5036827;28;19920;-50
2022/11/24 14:22:48;;;;;;;;;;;26.60;99.90;;;;;;5035567;28;19909;-50
2022/11/24 14:25:41;;;;;;;;;;;26.50;99.90;;;;;;5034665;28;19927;-50